createdAt,value
2024-02-05T00:00:11.483Z,16.33
2024-02-05T00:02:40.230Z,21.57
2024-02-05T00:05:08.584Z,15.97
2024-02-05T00:07:36.820Z,16.97
2024-02-05T00:10:06.790Z,18.57
2024-02-05T00:12:34.909Z,18.40
2024-02-05T00:15:05.578Z,19.30
2024-02-05T00:17:33.743Z,16.03
2024-02-05T00:20:02.345Z,15.37
2024-02-05T00:22:30.447Z,13.63
2024-02-05T00:24:58.408Z,14.17
2024-02-05T00:27:26.427Z,15.10
2024-02-05T00:29:54.415Z,13.57
2024-02-05T00:32:23.823Z,15.90
2024-02-05T00:34:51.939Z,16.70
2024-02-05T00:37:19.946Z,15.30
2024-02-05T00:39:47.901Z,15.53
2024-02-05T00:42:15.863Z,14.20
2024-02-05T00:44:43.890Z,19.30
2024-02-05T00:47:11.863Z,13.57
2024-02-05T00:49:41.420Z,16.60
2024-02-05T00:52:09.480Z,14.63
2024-02-05T00:54:37.544Z,11.60
2024-02-05T00:57:06.732Z,14.43
2024-02-05T00:59:34.737Z,12.70
2024-02-05T01:02:03.522Z,13.67
2024-02-05T01:04:33.842Z,13.27
2024-02-05T01:07:03.389Z,15.83
2024-02-05T01:09:31.478Z,16.47
2024-02-05T01:11:59.437Z,13.07
2024-02-05T01:14:28.703Z,12.43
2024-02-05T01:16:56.786Z,11.83
2024-02-05T01:19:25.018Z,14.23
2024-02-05T01:21:53.018Z,14.20
2024-02-05T01:24:22.421Z,12.73
2024-02-05T01:26:50.364Z,16.13
2024-02-05T01:29:18.308Z,15.47
2024-02-05T01:31:46.515Z,12.67
2024-02-05T01:34:14.840Z,14.87
2024-02-05T01:36:42.908Z,10.43
2024-02-05T01:39:11.845Z,10.90
2024-02-05T01:41:41.165Z,13.77
2024-02-05T01:44:09.212Z,11.70
2024-02-05T01:46:38.153Z,14.53
2024-02-05T01:49:08.969Z,15.80
2024-02-05T01:51:41.668Z,12.13
2024-02-05T01:54:10.555Z,12.93
2024-02-05T01:56:38.715Z,13.00
2024-02-05T01:59:08.949Z,14.17
2024-02-05T02:01:38.685Z,11.43
2024-02-05T02:04:07.365Z,11.63
2024-02-05T02:06:36.337Z,14.17
2024-02-05T02:09:04.867Z,12.43
2024-02-05T02:11:33.022Z,15.90
2024-02-05T02:14:01.044Z,16.20
2024-02-05T02:16:31.769Z,17.37
2024-02-05T02:19:02.351Z,12.27
2024-02-05T02:21:31.911Z,14.83
2024-02-05T02:24:02.388Z,11.40
2024-02-05T02:26:30.327Z,12.40
2024-02-05T02:28:58.346Z,10.70
2024-02-05T02:31:28.400Z,14.07
2024-02-05T02:34:01.366Z,9.83
2024-02-05T02:36:31.224Z,12.03
2024-02-05T02:39:02.882Z,10.63
2024-02-05T02:41:32.863Z,11.20
2024-02-05T02:44:01.134Z,9.87
2024-02-05T02:46:29.811Z,13.30
2024-02-05T02:48:58.348Z,15.30
2024-02-05T02:51:26.973Z,10.13
2024-02-05T02:53:55.041Z,9.90
2024-02-05T02:56:24.420Z,10.07
2024-02-05T02:58:52.444Z,15.60
2024-02-05T03:01:20.626Z,13.03
2024-02-05T03:03:49.490Z,12.03
2024-02-05T03:06:17.959Z,10.50
2024-02-05T03:08:46.017Z,11.77
2024-02-05T03:11:13.982Z,13.90
2024-02-05T03:13:43.528Z,13.70
2024-02-05T03:16:11.563Z,9.93
2024-02-05T03:18:39.785Z,9.13
2024-02-05T03:21:08.237Z,11.20
2024-02-05T03:23:36.282Z,9.73
2024-02-05T03:26:05.068Z,10.17
2024-02-05T03:28:33.040Z,8.27
2024-02-05T03:31:05.404Z,13.27
2024-02-05T03:33:33.381Z,9.77
2024-02-05T03:36:01.306Z,7.03
2024-02-05T03:38:29.281Z,12.83
2024-02-05T03:40:58.240Z,10.83
2024-02-05T03:43:26.215Z,11.77
2024-02-05T03:45:54.202Z,10.33
2024-02-05T03:48:23.687Z,9.93
2024-02-05T03:50:51.892Z,11.27
2024-02-05T03:53:20.264Z,11.53
2024-02-05T03:55:48.293Z,9.83
2024-02-05T03:58:17.070Z,9.03
2024-02-05T04:00:45.524Z,9.97
2024-02-05T04:03:13.664Z,8.97
2024-02-05T04:05:43.096Z,8.60
2024-02-05T04:08:11.208Z,9.13
2024-02-05T04:10:39.238Z,9.27
2024-02-05T04:13:07.188Z,15.53
2024-02-05T04:15:36.029Z,4.30
2024-02-05T04:18:04.164Z,1.73
2024-02-05T04:20:32.311Z,1.30
2024-02-05T04:23:04.737Z,1.40
2024-02-05T04:25:37.617Z,0.90
2024-02-05T04:28:05.908Z,0.90
2024-02-05T04:30:38.801Z,3.50
2024-02-05T04:33:08.877Z,1.10
2024-02-05T04:35:37.411Z,1.00
2024-02-05T04:38:06.868Z,0.77
2024-02-05T04:40:34.843Z,0.80
2024-02-05T04:43:02.831Z,0.60
2024-02-05T04:45:30.788Z,0.67
2024-02-05T04:47:58.745Z,0.63
2024-02-05T04:50:26.919Z,0.60
2024-02-05T04:52:54.989Z,0.60
2024-02-05T04:55:24.457Z,2.37
2024-02-05T04:57:52.640Z,0.60
2024-02-05T05:00:21.651Z,0.60
2024-02-05T05:02:49.598Z,0.73
2024-02-05T05:05:17.636Z,0.67
2024-02-05T05:07:45.880Z,0.60
2024-02-05T05:10:14.483Z,0.53
2024-02-05T05:12:43.911Z,0.80
2024-02-05T05:15:16.139Z,0.70
2024-02-05T05:17:44.341Z,0.77
2024-02-05T05:20:13.094Z,1.83
2024-02-05T05:22:41.119Z,0.70
2024-02-05T05:25:09.618Z,1.33
2024-02-05T05:27:37.739Z,2.00
2024-02-05T05:30:07.859Z,0.70
2024-02-05T05:32:35.870Z,0.60
2024-02-05T05:35:03.952Z,0.50
2024-02-05T05:37:32.247Z,0.70
2024-02-05T05:40:01.031Z,0.60
2024-02-05T05:42:29.225Z,0.67
2024-02-05T05:44:57.229Z,0.80
2024-02-05T05:47:26.555Z,0.50
2024-02-05T05:49:54.668Z,0.60
2024-02-05T05:52:23.171Z,0.70
2024-02-05T05:54:51.233Z,0.73
2024-02-05T05:57:19.348Z,0.67
2024-02-05T05:59:47.373Z,0.70
2024-02-05T06:02:15.385Z,1.43
2024-02-05T06:04:44.929Z,1.87
2024-02-05T06:07:13.106Z,2.07
2024-02-05T06:09:41.272Z,0.50
2024-02-05T06:12:09.677Z,1.07
2024-02-05T06:14:37.679Z,1.33
2024-02-05T06:17:05.822Z,0.90
2024-02-05T06:19:33.915Z,1.67
2024-02-05T06:22:03.396Z,3.60
2024-02-05T06:24:31.594Z,1.10
2024-02-05T06:27:03.865Z,1.13
2024-02-05T06:29:31.837Z,0.60
2024-02-05T06:31:59.849Z,1.20
2024-02-05T06:34:27.930Z,0.93
2024-02-05T06:36:55.954Z,2.73
2024-02-05T06:39:25.312Z,1.93
2024-02-05T06:41:55.198Z,2.40
2024-02-05T06:44:23.120Z,1.70
2024-02-05T06:46:51.093Z,2.40
2024-02-05T06:49:19.148Z,1.13
2024-02-05T06:51:47.257Z,0.73
2024-02-05T06:54:15.390Z,0.80
2024-02-05T06:56:46.444Z,1.43
2024-02-05T06:59:16.712Z,1.83
2024-02-05T07:01:44.739Z,1.70
2024-02-05T07:04:12.841Z,4.97
2024-02-05T07:06:41.216Z,3.40
2024-02-05T07:09:09.961Z,0.90
2024-02-05T07:11:39.023Z,5.50
2024-02-05T07:14:08.450Z,2.63
2024-02-05T07:16:36.520Z,1.30
2024-02-05T07:19:04.781Z,1.33
2024-02-05T07:21:32.897Z,29.47
2024-02-05T07:24:01.539Z,8.10
2024-02-05T07:26:30.481Z,1.40
2024-02-05T07:28:58.405Z,3.43
2024-02-05T07:31:27.928Z,1.63
2024-02-05T07:33:56.475Z,3.97
2024-02-05T07:36:24.457Z,2.00
2024-02-05T07:38:52.889Z,2.17
2024-02-05T07:41:20.862Z,3.40
2024-02-05T07:43:48.892Z,1.23
2024-02-05T07:46:17.180Z,1.43
2024-02-05T07:48:46.775Z,4.43
2024-02-05T07:51:14.825Z,1.83
2024-02-05T07:53:42.869Z,2.00
2024-02-05T07:56:11.836Z,1.03
2024-02-05T07:58:39.884Z,1.23
2024-02-05T08:01:07.952Z,0.70
2024-02-05T08:03:37.820Z,2.67
2024-02-05T08:06:09.750Z,3.05
2024-02-05T08:08:37.798Z,0.60
2024-02-05T08:11:06.030Z,1.08
2024-02-05T08:13:34.079Z,0.60
2024-02-05T08:16:02.272Z,1.75
2024-02-05T08:18:30.386Z,1.07
2024-02-05T08:20:58.416Z,2.38
2024-02-05T08:23:27.949Z,1.73
2024-02-05T08:25:56.005Z,2.58
2024-02-05T08:28:24.455Z,1.38
2024-02-05T08:30:52.531Z,0.90
2024-02-05T08:33:20.675Z,1.52
2024-02-05T08:35:48.896Z,1.40
2024-02-05T08:38:16.946Z,1.52
2024-02-05T08:40:46.387Z,1.63
2024-02-05T08:43:14.584Z,0.98
2024-02-05T08:45:42.602Z,0.90
2024-02-05T08:48:10.800Z,2.08
2024-02-05T08:50:41.077Z,1.17
2024-02-05T08:53:09.221Z,1.55
2024-02-05T08:55:37.198Z,1.60
2024-02-05T08:58:06.772Z,5.10
2024-02-05T09:00:34.745Z,5.55
2024-02-05T09:03:06.234Z,12.18
2024-02-05T09:05:41.389Z,10.10
2024-02-05T09:08:14.314Z,11.18
2024-02-05T09:10:42.284Z,16.38
2024-02-05T09:13:12.073Z,13.18
2024-02-05T09:15:41.119Z,8.88
2024-02-05T09:18:09.417Z,8.38
2024-02-05T09:20:37.846Z,10.75
2024-02-05T09:23:06.076Z,10.02
2024-02-05T09:25:34.179Z,14.23
2024-02-05T09:28:02.256Z,14.20
2024-02-05T09:30:32.418Z,18.70
2024-02-05T09:33:00.503Z,9.73
2024-02-05T09:35:28.684Z,11.73
2024-02-05T09:37:56.869Z,10.02
2024-02-05T09:40:26.374Z,12.80
2024-02-05T09:42:54.698Z,9.23
2024-02-05T09:45:23.550Z,10.73
2024-02-05T09:47:53.174Z,10.82
2024-02-05T09:50:22.340Z,10.05
2024-02-05T09:52:50.855Z,11.98
2024-02-05T09:55:19.598Z,11.80
2024-02-05T09:57:48.080Z,7.47
2024-02-05T10:00:16.371Z,5.00
2024-02-05T10:02:44.442Z,8.88
2024-02-05T10:05:16.590Z,3.88
2024-02-05T10:07:46.584Z,7.50
2024-02-05T10:10:15.157Z,11.20
2024-02-05T10:12:45.145Z,9.95
2024-02-05T10:15:13.545Z,6.82
2024-02-05T10:17:41.577Z,6.40
2024-02-05T10:20:11.346Z,15.63
2024-02-05T10:22:45.490Z,7.45
2024-02-05T10:25:13.931Z,10.75
2024-02-05T10:27:42.870Z,10.77
2024-02-05T10:30:11.824Z,13.40
2024-02-05T10:32:40.711Z,22.08
2024-02-05T10:35:09.810Z,11.73
2024-02-05T10:37:37.985Z,4.18
2024-02-05T10:40:12.216Z,7.20
2024-02-05T10:42:40.248Z,11.23
2024-02-05T10:45:08.944Z,7.18
2024-02-05T10:47:37.701Z,6.53
2024-02-05T10:50:11.373Z,9.60
2024-02-05T10:52:42.016Z,6.35
2024-02-05T10:55:12.911Z,3.17
2024-02-05T10:57:41.370Z,5.32
2024-02-05T11:00:10.323Z,5.38
2024-02-05T11:02:42.181Z,9.15
2024-02-05T11:05:12.011Z,4.72
2024-02-05T11:07:45.259Z,2.55
2024-02-05T11:10:15.282Z,6.00
2024-02-05T11:12:44.823Z,4.68
2024-02-05T11:15:20.716Z,3.33
2024-02-05T11:17:49.373Z,2.95
2024-02-05T11:20:17.684Z,3.45
2024-02-05T11:22:47.132Z,4.55
2024-02-05T11:25:18.494Z,1.98
2024-02-05T11:27:46.896Z,4.35
2024-02-05T11:30:16.824Z,2.40
2024-02-05T11:32:44.922Z,6.50
2024-02-05T11:35:14.206Z,6.13
2024-02-05T11:37:43.379Z,3.05
2024-02-05T11:40:21.246Z,1.77
2024-02-05T11:42:49.411Z,3.25
2024-02-05T11:45:17.565Z,5.72
2024-02-05T11:47:45.572Z,2.55
2024-02-05T11:50:13.750Z,6.20
2024-02-05T11:52:42.471Z,4.13
2024-02-05T11:55:10.778Z,4.50
2024-02-05T11:57:40.192Z,1.45
2024-02-05T12:00:08.902Z,1.65
2024-02-05T12:02:39.761Z,1.98
2024-02-05T12:05:08.701Z,1.42
2024-02-05T12:07:36.757Z,1.77
2024-02-05T12:10:05.892Z,1.52
2024-02-05T12:12:33.970Z,3.97
2024-02-05T12:15:03.410Z,4.03
2024-02-05T12:17:33.020Z,3.33
2024-02-05T12:20:01.328Z,3.25
2024-02-05T12:22:29.929Z,7.18
2024-02-05T12:24:58.111Z,5.13
2024-02-05T12:27:26.767Z,3.38
2024-02-05T12:30:06.417Z,2.13
2024-02-05T12:32:42.576Z,6.25
2024-02-05T12:35:16.353Z,26.65
2024-02-05T12:37:44.675Z,2.60
2024-02-05T12:40:13.353Z,1.77
2024-02-05T12:42:41.861Z,3.88
2024-02-05T12:45:15.811Z,3.45
2024-02-05T12:47:49.246Z,4.05
2024-02-05T12:50:17.906Z,1.58
2024-02-05T12:52:46.478Z,4.70
2024-02-05T12:55:14.501Z,4.97
2024-02-05T12:57:42.508Z,1.83
2024-02-05T13:00:12.011Z,3.13
2024-02-05T13:02:40.072Z,2.78
2024-02-05T13:05:10.081Z,2.80
2024-02-05T13:07:39.484Z,5.07
2024-02-05T13:10:08.918Z,2.75
2024-02-05T13:12:36.956Z,1.83
2024-02-05T13:15:05.709Z,2.70
2024-02-05T13:17:33.800Z,4.88
2024-02-05T13:20:02.286Z,2.42
2024-02-05T13:22:31.752Z,2.60
2024-02-05T13:24:59.755Z,3.63
2024-02-05T13:27:27.932Z,6.13
2024-02-05T13:29:55.900Z,4.80
2024-02-05T13:32:24.005Z,2.17
2024-02-05T13:34:52.061Z,3.47
2024-02-05T13:37:20.100Z,4.32
2024-02-05T13:39:49.519Z,2.17
2024-02-05T13:42:17.548Z,4.00
2024-02-05T13:44:45.482Z,3.42
2024-02-05T13:47:13.502Z,2.63
2024-02-05T13:49:41.598Z,3.15
2024-02-05T13:52:09.739Z,4.35
2024-02-05T13:54:37.717Z,1.88
2024-02-05T13:57:07.396Z,2.15
2024-02-05T13:59:35.356Z,6.60
2024-02-05T14:02:03.437Z,2.60
2024-02-05T14:04:31.505Z,3.03
2024-02-05T14:06:59.665Z,2.80
2024-02-05T14:09:27.814Z,4.10
2024-02-05T14:11:55.820Z,4.10
2024-02-05T14:14:25.213Z,2.42
2024-02-05T14:16:53.661Z,1.92
2024-02-05T14:19:21.699Z,3.33
2024-02-05T14:21:50.271Z,2.70
2024-02-05T14:24:18.233Z,6.18
2024-02-05T14:26:46.302Z,3.38
2024-02-05T14:29:14.319Z,4.05
2024-02-05T14:31:43.705Z,5.03
2024-02-05T14:34:11.711Z,2.10
2024-02-05T14:36:40.578Z,1.88
2024-02-05T14:39:09.702Z,2.10
2024-02-05T14:41:37.676Z,1.30
2024-02-05T14:44:05.743Z,1.55
2024-02-05T14:46:33.987Z,3.90
2024-02-05T14:49:04.496Z,2.28
2024-02-05T14:51:33.724Z,2.70
2024-02-05T14:54:01.687Z,2.38
2024-02-05T14:56:29.732Z,3.65
2024-02-05T14:58:57.798Z,4.65
2024-02-05T15:01:25.849Z,5.60
2024-02-05T15:03:54.016Z,4.13
2024-02-05T15:06:24.126Z,2.10
2024-02-05T15:08:52.152Z,3.00
2024-02-05T15:11:20.096Z,10.98
2024-02-05T15:13:50.383Z,9.00
2024-02-05T15:16:18.703Z,1.38
2024-02-05T15:18:47.962Z,2.42
2024-02-05T15:21:17.236Z,1.65
2024-02-05T15:23:46.733Z,2.63
2024-02-05T15:26:14.737Z,2.20
2024-02-05T15:28:42.981Z,2.17
2024-02-05T15:31:11.660Z,2.33
2024-02-05T15:33:39.943Z,5.43
2024-02-05T15:36:10.339Z,2.38
2024-02-05T15:38:38.346Z,1.92
2024-02-05T15:41:07.884Z,5.88
2024-02-05T15:43:35.950Z,10.05
2024-02-05T15:46:04.021Z,3.25
2024-02-05T15:48:32.179Z,1.67
2024-02-05T15:51:00.554Z,7.20
2024-02-05T15:53:28.560Z,7.47
2024-02-05T15:55:56.499Z,2.65
2024-02-05T15:58:25.952Z,7.15
2024-02-05T16:00:54.081Z,6.20
2024-02-05T16:03:22.189Z,8.18
2024-02-05T16:05:50.195Z,8.80
2024-02-05T16:08:18.628Z,11.52
2024-02-05T16:10:47.008Z,6.18
2024-02-05T16:13:15.063Z,7.70
2024-02-05T16:15:44.492Z,8.45
2024-02-05T16:18:12.699Z,4.70
2024-02-05T16:20:41.173Z,12.02
2024-02-05T16:23:10.031Z,5.17
2024-02-05T16:25:38.132Z,12.88
2024-02-05T16:28:07.083Z,8.83
2024-02-05T16:30:35.367Z,5.50
2024-02-05T16:33:05.095Z,6.33
2024-02-05T16:35:33.190Z,8.80
2024-02-05T16:38:01.174Z,5.43
2024-02-05T16:40:30.058Z,10.80
2024-02-05T16:42:58.194Z,11.17
2024-02-05T16:45:26.207Z,10.80
2024-02-05T16:47:54.693Z,6.40
2024-02-05T16:50:24.141Z,9.07
2024-02-05T16:52:52.391Z,6.33
2024-02-05T16:55:20.382Z,5.23
2024-02-05T16:57:49.097Z,5.90
2024-02-05T17:00:17.723Z,3.93
2024-02-05T17:02:45.760Z,4.90
2024-02-05T17:05:14.213Z,20.37
2024-02-05T17:07:46.143Z,12.47
2024-02-05T17:10:14.416Z,9.97
2024-02-05T17:12:42.442Z,8.10
2024-02-05T17:15:10.633Z,5.80
2024-02-05T17:17:39.044Z,7.97
2024-02-05T17:20:07.760Z,4.70
2024-02-05T17:22:35.893Z,4.63
2024-02-05T17:25:05.589Z,7.57
2024-02-05T17:27:33.628Z,10.07
2024-02-05T17:30:03.092Z,7.57
2024-02-05T17:32:31.475Z,5.50
2024-02-05T17:35:01.310Z,4.07
2024-02-05T17:37:29.534Z,5.57
2024-02-05T17:39:57.835Z,10.00
2024-02-05T17:42:29.056Z,5.23
2024-02-05T17:44:57.210Z,7.50
2024-02-05T17:47:25.285Z,8.13
2024-02-05T17:49:53.490Z,6.33
2024-02-05T17:52:21.609Z,7.93
2024-02-05T17:54:49.716Z,7.00
2024-02-05T17:57:17.785Z,10.10
2024-02-05T17:59:47.219Z,7.17
2024-02-05T18:02:16.448Z,12.43
2024-02-05T18:04:44.779Z,7.53
2024-02-05T18:07:13.017Z,7.50
2024-02-05T18:09:41.480Z,4.03
2024-02-05T18:12:09.678Z,4.97
2024-02-05T18:14:37.726Z,7.37
2024-02-05T18:17:07.284Z,5.40
2024-02-05T18:19:35.654Z,8.50
2024-02-05T18:22:03.979Z,8.47
2024-02-05T18:24:38.045Z,8.73
2024-02-05T18:27:13.869Z,7.10
2024-02-05T18:29:41.857Z,3.97
2024-02-05T18:32:11.409Z,9.80
2024-02-05T18:34:44.839Z,11.77
2024-02-05T18:37:18.868Z,13.70
2024-02-05T18:39:53.359Z,15.73
2024-02-05T18:42:21.336Z,16.70
2024-02-05T18:44:49.373Z,16.10
2024-02-05T18:47:18.721Z,19.03
2024-02-05T18:49:46.842Z,20.13
2024-02-05T18:52:15.004Z,18.57
2024-02-05T18:54:43.021Z,85.30
2024-02-05T18:57:16.382Z,43.63
2024-02-05T18:59:44.630Z,16.80
2024-02-05T19:02:13.057Z,13.77
2024-02-05T19:04:42.655Z,13.83
2024-02-05T19:07:10.728Z,11.63
2024-02-05T19:09:38.764Z,7.27
2024-02-05T19:12:07.005Z,6.10
2024-02-05T19:14:35.116Z,6.83
2024-02-05T19:17:03.137Z,6.17
2024-02-05T19:19:31.500Z,6.07
2024-02-05T19:22:01.243Z,9.70
2024-02-05T19:24:31.003Z,8.23
2024-02-05T19:27:01.684Z,4.40
2024-02-05T19:29:29.837Z,8.80
2024-02-05T19:31:57.929Z,4.50
2024-02-05T19:34:26.110Z,4.57
2024-02-05T19:36:54.243Z,4.30
2024-02-05T19:39:24.176Z,5.60
2024-02-05T19:41:53.679Z,4.27
2024-02-05T19:44:22.906Z,7.50
2024-02-05T19:46:58.099Z,5.43
2024-02-05T19:49:26.821Z,5.87
2024-02-05T19:51:55.446Z,25.10
2024-02-05T19:54:27.013Z,17.77
2024-02-05T19:56:55.862Z,18.00
2024-02-05T19:59:24.498Z,18.00
2024-02-05T20:01:54.617Z,11.20
2024-02-05T20:04:23.195Z,13.60
2024-02-05T20:06:52.207Z,7.57
2024-02-05T20:09:20.517Z,6.10
2024-02-05T20:11:49.873Z,5.03
2024-02-05T20:14:17.951Z,10.47
2024-02-05T20:16:45.998Z,6.97
2024-02-05T20:19:14.046Z,4.33
2024-02-05T20:21:42.154Z,5.60
2024-02-05T20:24:10.355Z,12.53
2024-02-05T20:26:38.347Z,7.53
2024-02-05T20:29:08.093Z,8.27
2024-02-05T20:31:36.200Z,6.27
2024-02-05T20:34:04.301Z,8.40
2024-02-05T20:36:32.393Z,7.77
2024-02-05T20:39:00.363Z,9.37
2024-02-05T20:41:28.507Z,7.90
2024-02-05T20:43:56.695Z,5.37
2024-02-05T20:46:26.283Z,9.53
2024-02-05T20:48:54.439Z,7.63
2024-02-05T20:51:22.459Z,6.57
2024-02-05T20:53:50.453Z,6.13
2024-02-05T20:56:20.707Z,5.37
2024-02-05T20:58:49.031Z,9.37
2024-02-05T21:01:17.310Z,15.67
2024-02-05T21:03:47.762Z,12.20
2024-02-05T21:06:16.899Z,9.97
2024-02-05T21:08:45.354Z,7.80
2024-02-05T21:11:13.343Z,8.37
2024-02-05T21:13:41.312Z,7.33
2024-02-05T21:16:10.753Z,7.13
2024-02-05T21:18:39.004Z,6.87
2024-02-05T21:21:08.836Z,10.63
2024-02-05T21:23:37.130Z,14.87
2024-02-05T21:26:05.317Z,11.37
2024-02-05T21:28:33.409Z,9.43
2024-02-05T21:31:01.514Z,11.70
2024-02-05T21:33:29.724Z,12.43
2024-02-05T21:35:57.803Z,12.13
2024-02-05T21:38:27.230Z,13.93
2024-02-05T21:40:55.412Z,9.83
2024-02-05T21:43:23.512Z,8.53
2024-02-05T21:45:51.613Z,9.20
2024-02-05T21:48:19.646Z,8.63
2024-02-05T21:50:47.996Z,9.07
2024-02-05T21:53:16.011Z,10.30
2024-02-05T21:55:45.556Z,9.87
2024-02-05T21:58:13.622Z,11.60
2024-02-05T22:00:42.244Z,14.43
2024-02-05T22:03:10.272Z,14.13
2024-02-05T22:05:38.413Z,17.20
2024-02-05T22:08:06.658Z,14.90
2024-02-05T22:10:35.883Z,12.23
2024-02-05T22:13:05.490Z,13.10
2024-02-05T22:15:36.256Z,15.00
2024-02-05T22:18:04.526Z,10.50
2024-02-05T22:20:34.776Z,14.00
2024-02-05T22:23:02.729Z,10.53
2024-02-05T22:25:30.854Z,13.07
2024-02-05T22:27:58.834Z,14.67
2024-02-05T22:30:30.247Z,14.17
2024-02-05T22:32:58.281Z,10.53
2024-02-05T22:35:26.392Z,13.43
2024-02-05T22:37:54.783Z,18.13
2024-02-05T22:40:22.780Z,11.60
2024-02-05T22:42:50.860Z,17.80
2024-02-05T22:45:18.853Z,12.53
2024-02-05T22:47:48.474Z,10.80
2024-02-05T22:50:16.514Z,14.80
2024-02-05T22:52:44.602Z,13.07
2024-02-05T22:55:12.772Z,12.53
2024-02-05T22:57:40.835Z,14.57
2024-02-05T23:00:22.287Z,13.60
2024-02-05T23:02:52.199Z,13.93
2024-02-05T23:05:20.883Z,13.27
2024-02-05T23:07:49.128Z,9.03
2024-02-05T23:10:17.416Z,14.57
2024-02-05T23:12:45.421Z,12.63
2024-02-05T23:15:13.769Z,14.00
2024-02-05T23:17:42.603Z,15.80
2024-02-05T23:20:12.528Z,17.40
2024-02-05T23:22:40.551Z,11.57
2024-02-05T23:25:09.215Z,9.80
2024-02-05T23:27:38.481Z,12.00
2024-02-05T23:30:07.060Z,7.97
2024-02-05T23:32:35.186Z,9.67
2024-02-05T23:35:05.700Z,13.33
2024-02-05T23:37:35.353Z,11.90
2024-02-05T23:40:05.065Z,9.07
2024-02-05T23:42:33.240Z,12.70
2024-02-05T23:45:01.175Z,9.70
2024-02-05T23:47:29.227Z,8.40
2024-02-05T23:49:57.328Z,15.40
2024-02-05T23:52:25.826Z,12.47
2024-02-05T23:54:55.307Z,11.80
2024-02-05T23:57:23.598Z,9.50
2024-02-05T23:59:51.614Z,9.47
